sensor_id;sensor_type;location;lat;lon;timestamp;P1;durP1;ratioP1;P2;durP2;ratioP2
70071;SDS011;57434;42.794;23.302;2023-03-23T00:00:00;26.67;;;11.93;;
70071;SDS011;57434;42.794;23.302;2023-03-23T00:01:00;26.80;;;11.30;;
70071;SDS011;57434;42.794;23.302;2023-03-23T00:02:01;25.23;;;12.07;;
70071;SDS011;57434;42.794;23.302;2023-03-23T00:03:01;28.33;;;12.77;;
70071;SDS011;57434;42.794;23.302;2023-03-23T00:04:02;25.50;;;12.48;;
70071;SDS011;57434;42.794;23.302;2023-03-23T00:05:03;24.33;;;11.87;;
70071;SDS011;57434;42.794;23.302;2023-03-23T00:06:04;24.97;;;12.57;;
70071;SDS011;57434;42.794;23.302;2023-03-23T00:07:04;24.40;;;12.15;;
70071;SDS011;57434;42.794;23.302;2023-03-23T00:08:05;21.77;;;11.90;;
70071;SDS011;57434;42.794;23.302;2023-03-23T00:09:05;25.83;;;12.63;;
70071;SDS011;57434;42.794;23.302;2023-03-23T00:10:05;21.15;;;11.32;;
70071;SDS011;57434;42.794;23.302;2023-03-23T00:11:06;23.40;;;11.67;;
70071;SDS011;57434;42.794;23.302;2023-03-23T00:12:07;24.37;;;12.43;;
70071;SDS011;57434;42.794;23.302;2023-03-23T00:13:07;25.20;;;12.77;;
70071;SDS011;57434;42.794;23.302;2023-03-23T00:14:08;22.93;;;12.30;;
70071;SDS011;57434;42.794;23.302;2023-03-23T00:15:09;22.03;;;12.60;;
70071;SDS011;57434;42.794;23.302;2023-03-23T00:16:10;23.48;;;12.10;;
70071;SDS011;57434;42.794;23.302;2023-03-23T00:17:10;29.40;;;14.87;;
70071;SDS011;57434;42.794;23.302;2023-03-23T00:18:11;29.75;;;13.80;;
70071;SDS011;57434;42.794;23.302;2023-03-23T00:19:11;27.70;;;15.17;;
70071;SDS011;57434;42.794;23.302;2023-03-23T00:20:12;28.00;;;14.52;;
70071;SDS011;57434;42.794;23.302;2023-03-23T00:21:13;25.07;;;12.97;;
70071;SDS011;57434;42.794;23.302;2023-03-23T00:22:14;29.23;;;14.60;;
70071;SDS011;57434;42.794;23.302;2023-03-23T00:23:15;30.50;;;15.00;;
70071;SDS011;57434;42.794;23.302;2023-03-23T00:24:16;26.23;;;13.73;;
70071;SDS011;57434;42.794;23.302;2023-03-23T00:25:17;29.57;;;14.97;;
70071;SDS011;57434;42.794;23.302;2023-03-23T00:26:17;29.80;;;14.65;;
70071;SDS011;57434;42.794;23.302;2023-03-23T00:27:17;23.53;;;13.77;;
70071;SDS011;57434;42.794;23.302;2023-03-23T00:28:19;29.97;;;14.43;;
70071;SDS011;57434;42.794;23.302;2023-03-23T00:29:20;31.33;;;14.48;;
70071;SDS011;57434;42.794;23.302;2023-03-23T00:30:21;32.13;;;15.35;;
70071;SDS011;57434;42.794;23.302;2023-03-23T00:31:22;29.47;;;14.53;;
70071;SDS011;57434;42.794;23.302;2023-03-23T00:32:23;27.73;;;14.27;;
70071;SDS011;57434;42.794;23.302;2023-03-23T00:33:24;27.30;;;13.70;;
70071;SDS011;57434;42.794;23.302;2023-03-23T00:34:25;25.13;;;13.98;;
70071;SDS011;57434;42.794;23.302;2023-03-23T00:35:25;25.50;;;13.47;;
70071;SDS011;57434;42.794;23.302;2023-03-23T00:36:26;26.50;;;13.73;;
70071;SDS011;57434;42.794;23.302;2023-03-23T00:37:26;29.55;;;14.20;;
70071;SDS011;57434;42.794;23.302;2023-03-23T00:38:27;26.30;;;13.77;;
70071;SDS011;57434;42.794;23.302;2023-03-23T00:39:28;30.52;;;16.13;;
70071;SDS011;57434;42.794;23.302;2023-03-23T00:40:28;30.13;;;14.13;;
70071;SDS011;57434;42.794;23.302;2023-03-23T00:41:29;27.97;;;14.93;;
70071;SDS011;57434;42.794;23.302;2023-03-23T00:42:29;33.07;;;17.00;;
70071;SDS011;57434;42.794;23.302;2023-03-23T00:43:30;31.23;;;14.63;;
70071;SDS011;57434;42.794;23.302;2023-03-23T00:44:31;30.80;;;14.87;;
70071;SDS011;57434;42.794;23.302;2023-03-23T00:45:32;32.05;;;15.65;;
70071;SDS011;57434;42.794;23.302;2023-03-23T00:46:32;32.97;;;15.63;;
70071;SDS011;57434;42.794;23.302;2023-03-23T00:47:32;33.13;;;16.13;;
70071;SDS011;57434;42.794;23.302;2023-03-23T00:48:33;31.67;;;16.40;;
70071;SDS011;57434;42.794;23.302;2023-03-23T00:49:34;33.03;;;17.30;;
70071;SDS011;57434;42.794;23.302;2023-03-23T00:50:34;33.90;;;17.83;;
70071;SDS011;57434;42.794;23.302;2023-03-23T00:51:35;36.77;;;17.43;;
70071;SDS011;57434;42.794;23.302;2023-03-23T00:52:35;34.97;;;18.63;;
70071;SDS011;57434;42.794;23.302;2023-03-23T00:53:35;36.00;;;16.17;;
70071;SDS011;57434;42.794;23.302;2023-03-23T00:54:36;32.90;;;15.27;;
70071;SDS011;57434;42.794;23.302;2023-03-23T00:55:36;36.23;;;17.87;;
70071;SDS011;57434;42.794;23.302;2023-03-23T00:56:37;35.80;;;16.65;;
70071;SDS011;57434;42.794;23.302;2023-03-23T00:57:37;36.80;;;16.97;;
70071;SDS011;57434;42.794;23.302;2023-03-23T00:58:37;29.73;;;15.40;;
70071;SDS011;57434;42.794;23.302;2023-03-23T00:59:38;31.58;;;15.57;;
70071;SDS011;57434;42.794;23.302;2023-03-23T01:00:38;31.67;;;15.10;;
70071;SDS011;57434;42.794;23.302;2023-03-23T01:01:39;33.50;;;16.63;;
70071;SDS011;57434;42.794;23.302;2023-03-23T01:02:39;30.20;;;15.47;;
70071;SDS011;57434;42.794;23.302;2023-03-23T01:03:39;31.83;;;16.23;;
70071;SDS011;57434;42.794;23.302;2023-03-23T01:04:40;36.10;;;17.07;;
70071;SDS011;57434;42.794;23.302;2023-03-23T01:05:40;32.13;;;15.80;;
70071;SDS011;57434;42.794;23.302;2023-03-23T01:06:41;29.40;;;15.77;;
70071;SDS011;57434;42.794;23.302;2023-03-23T01:07:42;34.60;;;16.95;;
70071;SDS011;57434;42.794;23.302;2023-03-23T01:08:42;32.13;;;16.73;;
70071;SDS011;57434;42.794;23.302;2023-03-23T01:09:43;31.50;;;15.67;;
70071;SDS011;57434;42.794;23.302;2023-03-23T01:10:43;28.77;;;15.27;;
70071;SDS011;57434;42.794;23.302;2023-03-23T01:11:44;30.67;;;14.52;;
70071;SDS011;57434;42.794;23.302;2023-03-23T01:12:44;33.70;;;16.73;;
70071;SDS011;57434;42.794;23.302;2023-03-23T01:13:45;25.40;;;13.90;;
70071;SDS011;57434;42.794;23.302;2023-03-23T01:14:46;27.70;;;15.55;;
70071;SDS011;57434;42.794;23.302;2023-03-23T01:15:46;27.53;;;15.73;;
70071;SDS011;57434;42.794;23.302;2023-03-23T01:16:47;32.17;;;16.70;;
70071;SDS011;57434;42.794;23.302;2023-03-23T01:17:47;32.83;;;15.00;;
70071;SDS011;57434;42.794;23.302;2023-03-23T01:18:48;33.57;;;15.10;;
70071;SDS011;57434;42.794;23.302;2023-03-23T01:19:48;34.17;;;16.00;;
70071;SDS011;57434;42.794;23.302;2023-03-23T01:20:49;29.30;;;14.40;;
70071;SDS011;57434;42.794;23.302;2023-03-23T01:21:49;29.30;;;14.73;;
70071;SDS011;57434;42.794;23.302;2023-03-23T01:22:49;29.63;;;14.23;;
70071;SDS011;57434;42.794;23.302;2023-03-23T01:23:50;28.83;;;14.13;;
70071;SDS011;57434;42.794;23.302;2023-03-23T01:24:50;23.63;;;12.80;;
70071;SDS011;57434;42.794;23.302;2023-03-23T01:25:50;23.73;;;12.10;;
70071;SDS011;57434;42.794;23.302;2023-03-23T01:26:51;28.10;;;13.00;;
70071;SDS011;57434;42.794;23.302;2023-03-23T01:27:51;23.08;;;11.50;;
70071;SDS011;57434;42.794;23.302;2023-03-23T01:28:52;21.53;;;10.73;;
70071;SDS011;57434;42.794;23.302;2023-03-23T01:29:52;20.80;;;10.97;;
70071;SDS011;57434;42.794;23.302;2023-03-23T01:30:53;23.63;;;12.17;;
70071;SDS011;57434;42.794;23.302;2023-03-23T01:31:58;22.02;;;10.18;;
70071;SDS011;57434;42.794;23.302;2023-03-23T01:32:59;24.93;;;11.33;;
70071;SDS011;57434;42.794;23.302;2023-03-23T01:33:59;23.53;;;11.07;;
70071;SDS011;57434;42.794;23.302;2023-03-23T01:34:59;24.40;;;11.85;;
70071;SDS011;57434;42.794;23.302;2023-03-23T01:36:07;26.23;;;12.67;;
70071;SDS011;57434;42.794;23.302;2023-03-23T01:37:08;24.75;;;11.93;;
70071;SDS011;57434;42.794;23.302;2023-03-23T01:38:09;23.57;;;12.00;;
70071;SDS011;57434;42.794;23.302;2023-03-23T01:39:09;24.07;;;12.13;;
70071;SDS011;57434;42.794;23.302;2023-03-23T01:40:10;25.50;;;12.57;;
70071;SDS011;57434;42.794;23.302;2023-03-23T01:41:10;24.00;;;11.97;;
70071;SDS011;57434;42.794;23.302;2023-03-23T01:42:11;26.77;;;12.80;;
70071;SDS011;57434;42.794;23.302;2023-03-23T01:43:13;22.43;;;11.50;;
70071;SDS011;57434;42.794;23.302;2023-03-23T01:46:19;26.17;;;12.02;;
70071;SDS011;57434;42.794;23.302;2023-03-23T01:47:20;24.10;;;11.67;;
70071;SDS011;57434;42.794;23.302;2023-03-23T01:48:23;26.33;;;11.77;;
70071;SDS011;57434;42.794;23.302;2023-03-23T01:49:25;32.35;;;13.02;;
70071;SDS011;57434;42.794;23.302;2023-03-23T01:50:26;32.50;;;12.25;;
70071;SDS011;57434;42.794;23.302;2023-03-23T01:51:28;28.27;;;12.43;;
70071;SDS011;57434;42.794;23.302;2023-03-23T01:52:28;24.37;;;11.50;;
70071;SDS011;57434;42.794;23.302;2023-03-23T01:53:30;26.25;;;12.05;;
70071;SDS011;57434;42.794;23.302;2023-03-23T01:54:32;27.33;;;12.73;;
70071;SDS011;57434;42.794;23.302;2023-03-23T01:55:32;26.67;;;12.77;;
70071;SDS011;57434;42.794;23.302;2023-03-23T01:56:45;23.60;;;11.77;;
70071;SDS011;57434;42.794;23.302;2023-03-23T01:57:46;28.40;;;11.75;;
70071;SDS011;57434;42.794;23.302;2023-03-23T01:58:47;30.70;;;12.50;;
70071;SDS011;57434;42.794;23.302;2023-03-23T01:59:49;25.17;;;12.45;;
70071;SDS011;57434;42.794;23.302;2023-03-23T02:00:51;26.58;;;12.45;;
70071;SDS011;57434;42.794;23.302;2023-03-23T02:01:53;27.95;;;13.43;;
70071;SDS011;57434;42.794;23.302;2023-03-23T02:02:54;24.58;;;12.60;;
70071;SDS011;57434;42.794;23.302;2023-03-23T02:03:55;29.52;;;12.75;;
70071;SDS011;57434;42.794;23.302;2023-03-23T02:04:57;26.73;;;12.47;;
70071;SDS011;57434;42.794;23.302;2023-03-23T02:05:59;27.83;;;13.13;;
70071;SDS011;57434;42.794;23.302;2023-03-23T02:06:59;29.58;;;13.70;;
70071;SDS011;57434;42.794;23.302;2023-03-23T02:08:00;33.33;;;16.87;;
70071;SDS011;57434;42.794;23.302;2023-03-23T02:09:01;30.83;;;15.50;;
70071;SDS011;57434;42.794;23.302;2023-03-23T02:10:02;29.67;;;14.30;;
70071;SDS011;57434;42.794;23.302;2023-03-23T02:11:08;28.43;;;13.73;;
70071;SDS011;57434;42.794;23.302;2023-03-23T02:12:11;29.52;;;13.85;;
70071;SDS011;57434;42.794;23.302;2023-03-23T02:13:12;26.67;;;13.95;;
70071;SDS011;57434;42.794;23.302;2023-03-23T02:14:13;26.90;;;14.15;;
70071;SDS011;57434;42.794;23.302;2023-03-23T02:15:14;30.77;;;15.87;;
70071;SDS011;57434;42.794;23.302;2023-03-23T02:17:36;25.90;;;13.32;;
70071;SDS011;57434;42.794;23.302;2023-03-23T02:18:57;26.67;;;13.40;;
70071;SDS011;57434;42.794;23.302;2023-03-23T02:20:10;26.20;;;12.50;;
70071;SDS011;57434;42.794;23.302;2023-03-23T02:22:35;29.27;;;14.65;;
70071;SDS011;57434;42.794;23.302;2023-03-23T02:23:46;23.88;;;12.82;;
70071;SDS011;57434;42.794;23.302;2023-03-23T02:24:58;23.90;;;12.07;;
70071;SDS011;57434;42.794;23.302;2023-03-23T02:27:09;22.47;;;11.70;;
70071;SDS011;57434;42.794;23.302;2023-03-23T02:29:14;23.67;;;12.43;;
70071;SDS011;57434;42.794;23.302;2023-03-23T02:34:40;25.23;;;12.13;;
70071;SDS011;57434;42.794;23.302;2023-03-23T02:35:43;23.60;;;12.55;;
70071;SDS011;57434;42.794;23.302;2023-03-23T02:37:57;23.75;;;12.77;;
70071;SDS011;57434;42.794;23.302;2023-03-23T02:40:20;27.33;;;13.03;;
70071;SDS011;57434;42.794;23.302;2023-03-23T02:41:24;24.67;;;11.32;;
70071;SDS011;57434;42.794;23.302;2023-03-23T02:42:28;23.63;;;11.90;;
70071;SDS011;57434;42.794;23.302;2023-03-23T02:43:36;28.42;;;13.70;;
70071;SDS011;57434;42.794;23.302;2023-03-23T02:44:39;23.83;;;12.43;;
70071;SDS011;57434;42.794;23.302;2023-03-23T02:45:42;26.60;;;12.60;;
70071;SDS011;57434;42.794;23.302;2023-03-23T02:46:44;29.88;;;13.45;;
70071;SDS011;57434;42.794;23.302;2023-03-23T02:47:44;25.57;;;12.67;;
70071;SDS011;57434;42.794;23.302;2023-03-23T02:48:46;22.90;;;11.63;;
70071;SDS011;57434;42.794;23.302;2023-03-23T02:49:48;30.08;;;12.88;;
70071;SDS011;57434;42.794;23.302;2023-03-23T02:50:51;27.83;;;12.38;;
70071;SDS011;57434;42.794;23.302;2023-03-23T02:51:51;26.70;;;12.13;;
70071;SDS011;57434;42.794;23.302;2023-03-23T02:52:53;24.17;;;11.80;;
70071;SDS011;57434;42.794;23.302;2023-03-23T02:53:54;35.50;;;12.55;;
70071;SDS011;57434;42.794;23.302;2023-03-23T02:54:55;26.52;;;12.35;;
70071;SDS011;57434;42.794;23.302;2023-03-23T02:55:57;26.43;;;12.67;;
70071;SDS011;57434;42.794;23.302;2023-03-23T02:56:58;28.45;;;12.40;;
70071;SDS011;57434;42.794;23.302;2023-03-23T02:57:58;28.05;;;12.65;;
70071;SDS011;57434;42.794;23.302;2023-03-23T02:58:59;26.23;;;12.57;;
70071;SDS011;57434;42.794;23.302;2023-03-23T02:59:59;24.33;;;12.05;;
70071;SDS011;57434;42.794;23.302;2023-03-23T03:01:10;23.87;;;11.20;;
70071;SDS011;57434;42.794;23.302;2023-03-23T03:02:14;23.50;;;11.27;;
70071;SDS011;57434;42.794;23.302;2023-03-23T03:03:18;24.10;;;11.13;;
70071;SDS011;57434;42.794;23.302;2023-03-23T03:04:22;21.02;;;11.13;;
70071;SDS011;57434;42.794;23.302;2023-03-23T03:05:29;24.25;;;11.30;;
70071;SDS011;57434;42.794;23.302;2023-03-23T03:06:39;22.73;;;11.33;;
70071;SDS011;57434;42.794;23.302;2023-03-23T03:07:44;18.67;;;10.57;;
70071;SDS011;57434;42.794;23.302;2023-03-23T03:08:50;27.35;;;11.60;;
70071;SDS011;57434;42.794;23.302;2023-03-23T03:09:59;23.17;;;10.35;;
70071;SDS011;57434;42.794;23.302;2023-03-23T03:11:04;25.85;;;11.88;;
70071;SDS011;57434;42.794;23.302;2023-03-23T03:12:12;30.58;;;11.48;;
70071;SDS011;57434;42.794;23.302;2023-03-23T03:14:33;34.03;;;12.13;;
70071;SDS011;57434;42.794;23.302;2023-03-23T03:15:37;25.17;;;11.07;;
70071;SDS011;57434;42.794;23.302;2023-03-23T03:16:42;27.02;;;11.25;;
70071;SDS011;57434;42.794;23.302;2023-03-23T03:17:45;26.20;;;12.03;;
70071;SDS011;57434;42.794;23.302;2023-03-23T03:18:51;28.02;;;11.57;;
70071;SDS011;57434;42.794;23.302;2023-03-23T03:19:55;29.30;;;13.18;;
70071;SDS011;57434;42.794;23.302;2023-03-23T03:21:00;26.58;;;11.25;;
70071;SDS011;57434;42.794;23.302;2023-03-23T03:22:03;25.08;;;11.32;;
70071;SDS011;57434;42.794;23.302;2023-03-23T03:23:04;24.83;;;11.10;;
70071;SDS011;57434;42.794;23.302;2023-03-23T03:24:05;24.98;;;11.20;;
70071;SDS011;57434;42.794;23.302;2023-03-23T03:25:06;30.50;;;12.00;;
70071;SDS011;57434;42.794;23.302;2023-03-23T03:26:08;25.63;;;12.00;;
70071;SDS011;57434;42.794;23.302;2023-03-23T03:27:13;27.63;;;11.50;;
70071;SDS011;57434;42.794;23.302;2023-03-23T03:28:17;28.27;;;12.52;;
70071;SDS011;57434;42.794;23.302;2023-03-23T03:29:19;25.33;;;11.73;;
70071;SDS011;57434;42.794;23.302;2023-03-23T03:30:21;25.95;;;11.85;;
70071;SDS011;57434;42.794;23.302;2023-03-23T03:31:24;26.58;;;11.10;;
70071;SDS011;57434;42.794;23.302;2023-03-23T03:32:29;21.92;;;11.30;;
70071;SDS011;57434;42.794;23.302;2023-03-23T03:33:31;20.13;;;10.13;;
70071;SDS011;57434;42.794;23.302;2023-03-23T03:34:32;25.27;;;10.97;;
70071;SDS011;57434;42.794;23.302;2023-03-23T03:35:34;22.85;;;10.90;;
70071;SDS011;57434;42.794;23.302;2023-03-23T03:36:36;25.13;;;11.45;;
70071;SDS011;57434;42.794;23.302;2023-03-23T03:37:37;23.63;;;11.13;;
70071;SDS011;57434;42.794;23.302;2023-03-23T03:38:48;25.70;;;11.18;;
70071;SDS011;57434;42.794;23.302;2023-03-23T03:39:49;22.83;;;10.57;;
70071;SDS011;57434;42.794;23.302;2023-03-23T03:40:49;21.70;;;10.47;;
70071;SDS011;57434;42.794;23.302;2023-03-23T03:41:50;20.87;;;9.97;;
70071;SDS011;57434;42.794;23.302;2023-03-23T03:42:50;24.67;;;11.00;;
70071;SDS011;57434;42.794;23.302;2023-03-23T03:43:50;22.63;;;10.57;;
70071;SDS011;57434;42.794;23.302;2023-03-23T03:44:51;19.80;;;10.27;;
70071;SDS011;57434;42.794;23.302;2023-03-23T03:45:51;22.60;;;10.80;;
70071;SDS011;57434;42.794;23.302;2023-03-23T03:46:51;20.70;;;9.17;;
70071;SDS011;57434;42.794;23.302;2023-03-23T03:47:52;24.37;;;10.97;;
70071;SDS011;57434;42.794;23.302;2023-03-23T03:48:52;22.67;;;12.00;;
70071;SDS011;57434;42.794;23.302;2023-03-23T03:49:53;30.88;;;13.38;;
70071;SDS011;57434;42.794;23.302;2023-03-23T03:50:53;28.63;;;12.87;;
70071;SDS011;57434;42.794;23.302;2023-03-23T03:51:53;26.70;;;13.10;;
70071;SDS011;57434;42.794;23.302;2023-03-23T03:52:54;29.10;;;13.63;;
70071;SDS011;57434;42.794;23.302;2023-03-23T03:53:54;24.77;;;12.27;;
70071;SDS011;57434;42.794;23.302;2023-03-23T03:54:55;30.83;;;15.30;;
70071;SDS011;57434;42.794;23.302;2023-03-23T03:55:55;28.00;;;13.93;;
70071;SDS011;57434;42.794;23.302;2023-03-23T03:56:55;32.08;;;14.15;;
70071;SDS011;57434;42.794;23.302;2023-03-23T03:57:56;26.90;;;13.70;;
70071;SDS011;57434;42.794;23.302;2023-03-23T03:58:56;28.00;;;14.03;;
70071;SDS011;57434;42.794;23.302;2023-03-23T03:59:57;33.87;;;17.27;;
70071;SDS011;57434;42.794;23.302;2023-03-23T04:00:58;30.20;;;14.83;;
70071;SDS011;57434;42.794;23.302;2023-03-23T04:01:58;30.35;;;13.93;;
70071;SDS011;57434;42.794;23.302;2023-03-23T04:02:59;25.30;;;11.97;;
70071;SDS011;57434;42.794;23.302;2023-03-23T04:03:59;25.60;;;12.60;;
70071;SDS011;57434;42.794;23.302;2023-03-23T04:04:59;27.67;;;13.77;;
70071;SDS011;57434;42.794;23.302;2023-03-23T04:06:00;25.40;;;12.77;;
70071;SDS011;57434;42.794;23.302;2023-03-23T04:07:00;29.00;;;15.13;;
70071;SDS011;57434;42.794;23.302;2023-03-23T04:08:00;25.03;;;13.60;;
70071;SDS011;57434;42.794;23.302;2023-03-23T04:09:02;26.07;;;12.43;;
70071;SDS011;57434;42.794;23.302;2023-03-23T04:10:04;22.50;;;11.38;;
70071;SDS011;57434;42.794;23.302;2023-03-23T04:11:05;22.02;;;10.80;;
70071;SDS011;57434;42.794;23.302;2023-03-23T04:12:06;20.23;;;11.03;;
70071;SDS011;57434;42.794;23.302;2023-03-23T04:13:06;23.35;;;12.18;;
70071;SDS011;57434;42.794;23.302;2023-03-23T04:14:07;23.00;;;12.13;;
70071;SDS011;57434;42.794;23.302;2023-03-23T04:15:07;23.10;;;12.10;;
70071;SDS011;57434;42.794;23.302;2023-03-23T04:16:08;23.00;;;11.43;;
70071;SDS011;57434;42.794;23.302;2023-03-23T04:17:08;25.17;;;12.40;;
70071;SDS011;57434;42.794;23.302;2023-03-23T04:18:09;26.33;;;14.20;;
70071;SDS011;57434;42.794;23.302;2023-03-23T04:19:09;25.43;;;13.40;;
70071;SDS011;57434;42.794;23.302;2023-03-23T04:20:10;29.13;;;16.05;;
70071;SDS011;57434;42.794;23.302;2023-03-23T04:21:10;29.00;;;15.47;;
70071;SDS011;57434;42.794;23.302;2023-03-23T04:22:10;31.70;;;18.03;;
70071;SDS011;57434;42.794;23.302;2023-03-23T04:23:11;22.90;;;12.52;;
70071;SDS011;57434;42.794;23.302;2023-03-23T04:24:11;26.67;;;13.87;;
70071;SDS011;57434;42.794;23.302;2023-03-23T04:25:12;28.37;;;13.03;;
70071;SDS011;57434;42.794;23.302;2023-03-23T04:26:12;23.33;;;11.70;;
70071;SDS011;57434;42.794;23.302;2023-03-23T04:27:12;24.10;;;13.00;;
70071;SDS011;57434;42.794;23.302;2023-03-23T04:28:13;27.03;;;14.10;;
70071;SDS011;57434;42.794;23.302;2023-03-23T04:29:14;25.23;;;13.27;;
70071;SDS011;57434;42.794;23.302;2023-03-23T04:30:14;25.70;;;13.30;;
70071;SDS011;57434;42.794;23.302;2023-03-23T04:31:15;26.47;;;12.93;;
70071;SDS011;57434;42.794;23.302;2023-03-23T04:32:15;25.13;;;13.00;;
70071;SDS011;57434;42.794;23.302;2023-03-23T04:33:15;30.23;;;12.63;;
70071;SDS011;57434;42.794;23.302;2023-03-23T04:34:16;27.53;;;13.87;;
70071;SDS011;57434;42.794;23.302;2023-03-23T04:35:17;30.95;;;14.02;;
70071;SDS011;57434;42.794;23.302;2023-03-23T04:36:17;27.98;;;13.85;;
70071;SDS011;57434;42.794;23.302;2023-03-23T04:37:18;25.43;;;13.70;;
70071;SDS011;57434;42.794;23.302;2023-03-23T04:38:19;26.47;;;13.53;;
70071;SDS011;57434;42.794;23.302;2023-03-23T04:39:19;25.80;;;12.43;;
70071;SDS011;57434;42.794;23.302;2023-03-23T04:40:20;28.67;;;12.17;;
70071;SDS011;57434;42.794;23.302;2023-03-23T04:41:21;21.42;;;11.05;;
70071;SDS011;57434;42.794;23.302;2023-03-23T04:42:21;26.15;;;12.52;;
70071;SDS011;57434;42.794;23.302;2023-03-23T04:43:22;27.33;;;12.00;;
70071;SDS011;57434;42.794;23.302;2023-03-23T04:44:23;29.80;;;12.25;;
70071;SDS011;57434;42.794;23.302;2023-03-23T04:45:23;30.30;;;11.52;;
70071;SDS011;57434;42.794;23.302;2023-03-23T04:46:25;24.17;;;11.10;;
70071;SDS011;57434;42.794;23.302;2023-03-23T04:47:26;25.55;;;11.93;;
70071;SDS011;57434;42.794;23.302;2023-03-23T04:48:27;25.90;;;11.35;;
70071;SDS011;57434;42.794;23.302;2023-03-23T04:49:28;26.08;;;11.38;;
70071;SDS011;57434;42.794;23.302;2023-03-23T04:50:29;26.03;;;12.23;;
70071;SDS011;57434;42.794;23.302;2023-03-23T04:51:29;27.80;;;11.88;;
70071;SDS011;57434;42.794;23.302;2023-03-23T04:52:29;27.67;;;12.30;;
70071;SDS011;57434;42.794;23.302;2023-03-23T04:53:30;26.53;;;12.17;;
70071;SDS011;57434;42.794;23.302;2023-03-23T04:54:30;30.70;;;12.02;;
70071;SDS011;57434;42.794;23.302;2023-03-23T04:55:32;27.33;;;13.10;;
70071;SDS011;57434;42.794;23.302;2023-03-23T04:56:32;24.45;;;12.00;;
70071;SDS011;57434;42.794;23.302;2023-03-23T04:57:32;28.10;;;12.40;;
70071;SDS011;57434;42.794;23.302;2023-03-23T04:58:33;31.93;;;13.40;;
70071;SDS011;57434;42.794;23.302;2023-03-23T04:59:33;32.17;;;13.93;;
70071;SDS011;57434;42.794;23.302;2023-03-23T05:00:34;30.83;;;14.90;;
70071;SDS011;57434;42.794;23.302;2023-03-23T05:01:34;29.35;;;14.38;;
70071;SDS011;57434;42.794;23.302;2023-03-23T05:02:38;28.53;;;13.93;;
70071;SDS011;57434;42.794;23.302;2023-03-23T05:03:38;32.72;;;13.27;;
70071;SDS011;57434;42.794;23.302;2023-03-23T05:04:39;29.23;;;13.47;;
70071;SDS011;57434;42.794;23.302;2023-03-23T05:05:39;38.97;;;15.60;;
70071;SDS011;57434;42.794;23.302;2023-03-23T05:06:39;37.57;;;15.07;;
70071;SDS011;57434;42.794;23.302;2023-03-23T05:07:41;39.70;;;17.57;;
70071;SDS011;57434;42.794;23.302;2023-03-23T05:08:41;37.72;;;17.40;;
70071;SDS011;57434;42.794;23.302;2023-03-23T05:09:42;33.73;;;16.10;;
70071;SDS011;57434;42.794;23.302;2023-03-23T05:10:49;31.67;;;14.63;;
70071;SDS011;57434;42.794;23.302;2023-03-23T05:11:50;28.17;;;12.80;;
70071;SDS011;57434;42.794;23.302;2023-03-23T05:12:50;25.47;;;13.23;;
70071;SDS011;57434;42.794;23.302;2023-03-23T05:13:52;32.75;;;13.90;;
70071;SDS011;57434;42.794;23.302;2023-03-23T05:14:52;31.48;;;13.48;;
70071;SDS011;57434;42.794;23.302;2023-03-23T05:15:53;28.30;;;13.47;;
70071;SDS011;57434;42.794;23.302;2023-03-23T05:16:53;23.17;;;11.47;;
70071;SDS011;57434;42.794;23.302;2023-03-23T05:17:54;30.40;;;12.40;;
70071;SDS011;57434;42.794;23.302;2023-03-23T05:18:54;25.65;;;12.07;;
70071;SDS011;57434;42.794;23.302;2023-03-23T05:19:54;23.10;;;11.47;;
70071;SDS011;57434;42.794;23.302;2023-03-23T05:20:55;29.63;;;12.53;;
70071;SDS011;57434;42.794;23.302;2023-03-23T05:21:59;25.10;;;11.43;;
70071;SDS011;57434;42.794;23.302;2023-03-23T05:22:59;28.00;;;11.63;;
70071;SDS011;57434;42.794;23.302;2023-03-23T05:24:00;31.67;;;14.63;;
70071;SDS011;57434;42.794;23.302;2023-03-23T05:25:00;26.23;;;12.63;;
70071;SDS011;57434;42.794;23.302;2023-03-23T05:26:00;27.33;;;13.07;;
70071;SDS011;57434;42.794;23.302;2023-03-23T05:27:01;23.88;;;12.30;;
70071;SDS011;57434;42.794;23.302;2023-03-23T05:28:02;25.90;;;12.73;;
70071;SDS011;57434;42.794;23.302;2023-03-23T05:29:02;24.30;;;12.15;;
70071;SDS011;57434;42.794;23.302;2023-03-23T05:30:04;25.47;;;12.80;;
70071;SDS011;57434;42.794;23.302;2023-03-23T05:31:04;23.25;;;12.30;;
70071;SDS011;57434;42.794;23.302;2023-03-23T05:32:05;24.23;;;11.60;;
70071;SDS011;57434;42.794;23.302;2023-03-23T05:33:05;26.88;;;13.45;;
70071;SDS011;57434;42.794;23.302;2023-03-23T05:34:05;29.47;;;14.27;;
70071;SDS011;57434;42.794;23.302;2023-03-23T05:35:06;32.77;;;14.63;;
70071;SDS011;57434;42.794;23.302;2023-03-23T05:36:06;23.52;;;12.65;;
70071;SDS011;57434;42.794;23.302;2023-03-23T05:37:07;32.67;;;14.93;;
70071;SDS011;57434;42.794;23.302;2023-03-23T05:38:07;39.67;;;19.57;;
70071;SDS011;57434;42.794;23.302;2023-03-23T05:39:07;31.37;;;16.33;;
70071;SDS011;57434;42.794;23.302;2023-03-23T05:40:08;27.27;;;13.90;;
70071;SDS011;57434;42.794;23.302;2023-03-23T05:41:08;30.07;;;15.37;;
70071;SDS011;57434;42.794;23.302;2023-03-23T05:42:08;23.20;;;12.53;;
70071;SDS011;57434;42.794;23.302;2023-03-23T05:43:09;24.60;;;11.73;;
70071;SDS011;57434;42.794;23.302;2023-03-23T05:44:09;25.83;;;12.57;;
70071;SDS011;57434;42.794;23.302;2023-03-23T05:45:10;21.33;;;10.70;;
70071;SDS011;57434;42.794;23.302;2023-03-23T05:46:11;26.90;;;12.80;;
70071;SDS011;57434;42.794;23.302;2023-03-23T05:47:11;23.37;;;11.17;;
70071;SDS011;57434;42.794;23.302;2023-03-23T05:48:11;22.13;;;11.40;;
70071;SDS011;57434;42.794;23.302;2023-03-23T05:49:12;21.85;;;11.60;;
70071;SDS011;57434;42.794;23.302;2023-03-23T05:50:12;25.10;;;12.43;;
70071;SDS011;57434;42.794;23.302;2023-03-23T05:51:13;24.87;;;12.07;;
70071;SDS011;57434;42.794;23.302;2023-03-23T05:52:13;23.67;;;11.30;;
70071;SDS011;57434;42.794;23.302;2023-03-23T05:53:13;25.43;;;11.53;;
70071;SDS011;57434;42.794;23.302;2023-03-23T05:54:14;23.63;;;11.43;;
70071;SDS011;57434;42.794;23.302;2023-03-23T05:55:14;26.33;;;12.40;;
70071;SDS011;57434;42.794;23.302;2023-03-23T05:56:15;26.17;;;12.63;;
70071;SDS011;57434;42.794;23.302;2023-03-23T05:57:16;23.63;;;11.70;;
70071;SDS011;57434;42.794;23.302;2023-03-23T05:58:16;22.58;;;11.57;;
70071;SDS011;57434;42.794;23.302;2023-03-23T05:59:17;23.37;;;11.83;;
70071;SDS011;57434;42.794;23.302;2023-03-23T06:00:17;26.05;;;13.02;;
70071;SDS011;57434;42.794;23.302;2023-03-23T06:01:18;23.30;;;12.10;;
70071;SDS011;57434;42.794;23.302;2023-03-23T06:02:18;23.33;;;11.87;;
70071;SDS011;57434;42.794;23.302;2023-03-23T06:03:18;26.52;;;13.00;;
70071;SDS011;57434;42.794;23.302;2023-03-23T06:04:19;24.90;;;11.40;;
70071;SDS011;57434;42.794;23.302;2023-03-23T06:05:20;24.02;;;12.32;;
70071;SDS011;57434;42.794;23.302;2023-03-23T06:06:20;27.37;;;11.80;;
70071;SDS011;57434;42.794;23.302;2023-03-23T06:07:20;23.70;;;11.57;;
70071;SDS011;57434;42.794;23.302;2023-03-23T06:08:21;22.55;;;12.52;;